Time;durP1;ratioP1;P1;durP2;ratioP2;P2;SDS_P1;SDS_P2;PMS_P1;PMS_P2;Temp;Humidity;BMP_temperature;BMP_pressure;BME280_temperature;BME280_humidity;BME280_pressure;Samples;Min_cycle;Max_cycle;Signal;HPM_P1;HPM_P2
2021/12/19 00:00:40;;;;;;;5.05;3.30;;;;;;;9.94;59.39;100283.20;2198811;88;26142;-72
2021/12/19 00:04:21;;;;;;;3.40;3.10;;;;;;;9.91;59.39;100268.80;2199466;90;25770;-75
2021/12/19 00:11:07;;;;;;;4.30;3.10;;;;;;;9.90;59.37;100255.33;2222204;86;25740;-75
2021/12/19 00:14:28;;;;;;;2.67;2.47;;;;;;;9.88;59.33;100245.29;2301723;86;29729;-73
2021/12/19 00:17:49;;;;;;;3.00;2.80;;;;;;;9.86;59.30;100244.39;2302155;85;25881;-74
2021/12/19 00:21:11;;;;;;;3.52;2.52;;;;;;;9.85;59.29;100241.31;2304120;85;30017;-75
2021/12/19 00:24:32;;;;;;;2.70;2.50;;;;;;;9.84;59.23;100234.78;2303835;85;25937;-81
2021/12/19 00:28:09;;;;;;;3.07;2.87;;;;;;;9.81;59.21;100222.56;2347142;82;27034;-73
2021/12/19 00:31:43;;;;;;;2.92;2.62;;;;;;;9.79;59.22;100215.16;2318465;84;25669;-77
2021/12/19 00:34:56;;;;;;;3.12;2.60;;;;;;;9.76;59.21;100216.37;2312914;84;25713;-74
2021/12/19 00:38:17;;;;;;;3.47;2.37;;;;;;;9.75;59.22;100211.11;2347135;84;29047;-75
2021/12/19 00:41:42;;;;;;;3.40;3.10;;;;;;;9.73;59.23;100187.66;2343855;83;25748;-74
2021/12/19 00:45:32;;;;;;;2.77;2.50;;;;;;;9.71;59.22;100182.83;2316925;84;25822;-74
2021/12/19 00:48:55;;;;;;;2.70;2.47;;;;;;;9.69;59.20;100171.52;2222518;87;25980;-77
2021/12/19 00:52:16;;;;;;;3.50;2.85;;;;;;;9.65;59.19;100159.25;2201627;87;26157;-74
2021/12/19 00:55:48;;;;;;;3.73;2.80;;;;;;;9.64;59.18;100158.80;2201999;87;30459;-73
2021/12/19 00:59:24;;;;;;;2.52;2.33;;;;;;;9.62;59.14;100165.72;2219917;87;25306;-73
2021/12/19 01:02:51;;;;;;;2.10;1.90;;;;;;;9.61;59.12;100160.91;2221147;87;25691;-74
2021/12/19 01:06:19;;;;;;;3.05;2.15;;;;;;;9.59;59.06;100156.53;2201883;88;25859;-73
2021/12/19 01:09:42;;;;;;;1.77;1.65;;;;;;;9.55;59.05;100145.17;2222881;89;25711;-73
2021/12/19 01:13:03;;;;;;;2.27;1.57;;;;;;;9.55;59.06;100126.95;2222907;87;31081;-73
2021/12/19 01:16:23;;;;;;;1.92;1.70;;;;;;;9.55;59.02;100133.45;2222854;89;25801;-74
2021/12/19 01:19:45;;;;;;;2.20;2.00;;;;;;;9.55;59.02;100119.54;2292875;84;31008;-78
2021/12/19 01:23:13;;;;;;;2.10;1.70;;;;;;;9.52;59.01;100112.56;2346805;84;26089;-80
2021/12/19 01:26:56;;;;;;;2.00;1.37;;;;;;;9.50;59.02;100097.33;2316722;84;25733;-74
2021/12/19 01:30:23;;;;;;;1.70;1.30;;;;;;;9.52;59.02;100106.45;2346576;83;25736;-73
2021/12/19 01:33:47;;;;;;;1.82;1.52;;;;;;;9.50;59.00;100092.55;2346340;84;25641;-77
2021/12/19 01:37:12;;;;;;;2.12;1.40;;;;;;;9.46;59.00;100089.88;2340334;84;30045;-75
2021/12/19 01:40:49;;;;;;;2.05;1.37;;;;;;;9.46;59.05;100092.90;2316319;84;25204;-74
2021/12/19 01:44:14;;;;;;;5.83;1.47;;;;;;;9.45;59.07;100072.94;2199904;89;25761;-73
2021/12/19 01:47:45;;;;;;;1.25;1.15;;;;;;;9.41;59.09;100056.34;2220861;89;25925;-74
2021/12/19 01:51:09;;;;;;;1.90;1.37;;;;;;;9.40;59.16;100059.80;2221617;88;26543;-74
2021/12/19 01:54:30;;;;;;;2.10;1.50;;;;;;;9.39;59.19;100044.17;2221237;89;31199;-73
2021/12/19 01:57:50;;;;;;;1.80;1.33;;;;;;;9.39;59.24;100044.17;2221664;89;30037;-75
2021/12/19 02:01:16;;;;;;;1.37;1.23;;;;;;;9.37;59.23;100020.70;2221777;89;30615;-72
2021/12/19 02:04:36;;;;;;;1.30;1.07;;;;;;;9.35;59.27;100008.53;2217616;88;25656;-74
2021/12/19 02:11:28;;;;;;;1.37;1.20;;;;;;;9.35;59.29;99973.41;2093249;93;25941;-76
2021/12/19 02:14:52;;;;;;;1.43;0.90;;;;;;;9.36;59.33;99965.63;2094738;93;28145;-74
2021/12/19 02:18:23;;;;;;;1.20;1.10;;;;;;;9.34;59.31;99968.60;2057166;94;25747;-77
2021/12/19 02:21:44;;;;;;;1.20;1.10;;;;;;;9.34;59.30;99955.59;2057119;95;26733;-73
2021/12/19 02:25:20;;;;;;;1.10;1.00;;;;;;;9.32;59.38;99939.52;2057322;95;34854;-73
2021/12/19 02:28:43;;;;;;;3.08;1.20;;;;;;;9.31;59.37;99945.12;2057276;95;25835;-74
2021/12/19 02:32:06;;;;;;;1.20;0.80;;;;;;;9.31;59.39;99944.25;2057066;95;25815;-72
2021/12/19 02:35:32;;;;;;;1.15;0.98;;;;;;;9.29;59.40;99941.63;2057383;95;25723;-72
2021/12/19 02:50:12;;;;;;;1.10;0.93;;;;;;;9.26;59.54;99895.17;2304609;85;25643;-73
2021/12/19 02:53:39;;;;;;;1.57;0.85;;;;;;;9.26;59.55;99903.84;2304235;85;25699;-76
2021/12/19 02:57:03;;;;;;;1.40;1.10;;;;;;;9.24;59.57;99896.42;2304677;85;25656;-73
2021/12/19 03:00:33;;;;;;;1.22;1.00;;;;;;;9.24;59.66;99905.52;2304709;84;25997;-73
2021/12/19 03:03:57;;;;;;;1.32;1.00;;;;;;;9.26;59.64;99895.17;2289877;84;25636;-74
2021/12/19 03:07:42;;;;;;;;;;;;;;;;;;;;;
2021/12/19 03:18:27;;;;;;;2.10;1.10;;;;;;;9.26;59.81;99862.23;2275076;84;26562;-74
2021/12/19 03:21:51;;;;;;;1.42;0.90;;;;;;;9.25;59.79;99845.27;2257464;85;25660;-76
2021/12/19 03:25:14;;;;;;;1.10;1.00;;;;;;;9.23;59.87;99843.95;2279122;85;25731;-74
2021/12/19 03:28:43;;;;;;;0.75;0.75;;;;;;;9.25;59.92;99838.38;2302295;85;25906;-74
2021/12/19 03:32:07;;;;;;;0.68;0.68;;;;;;;9.25;59.95;99829.27;2301931;85;25880;-74
2021/12/19 03:35:30;;;;;;;1.50;0.80;;;;;;;9.25;59.97;99814.97;2302623;85;25738;-77
2021/12/19 03:39:03;;;;;;;1.00;0.90;;;;;;;9.25;60.02;99799.36;2302357;85;25769;-73
2021/12/19 03:42:40;;;;;;;0.95;0.72;;;;;;;9.25;60.09;99801.05;2302145;85;25758;-72
2021/12/19 03:46:05;;;;;;;0.90;0.60;;;;;;;9.25;60.14;99804.56;2302061;85;25617;-75
2021/12/19 03:49:48;;;;;;;1.20;0.82;;;;;;;9.26;60.13;99792.00;2302148;84;25297;-77
2021/12/19 03:53:11;;;;;;;1.07;0.78;;;;;;;9.27;60.19;99785.06;2303658;84;25308;-73
2021/12/19 03:56:47;;;;;;;1.05;0.80;;;;;;;9.27;60.24;99779.44;2350945;84;25649;-72
2021/12/19 04:00:27;;;;;;;0.85;0.70;;;;;;;9.27;60.25;99778.14;2342112;83;25694;-71
2021/12/19 04:03:53;;;;;;;1.02;0.75;;;;;;;9.27;60.29;99769.03;2306429;85;25642;-72
2021/12/19 04:07:13;;;;;;;1.15;0.88;;;;;;;9.28;60.36;99753.00;2215543;88;25647;-78
2021/12/19 04:10:46;;;;;;;1.37;0.80;;;;;;;9.27;60.39;99753.43;2183109;88;29038;-73
2021/12/19 04:14:11;;;;;;;1.20;0.80;;;;;;;9.29;60.44;99746.55;2234090;88;25733;-73
2021/12/19 04:17:38;;;;;;;1.00;0.90;;;;;;;9.32;60.41;99740.53;2247211;88;29612;-73
2021/12/19 04:21:01;;;;;;;1.00;0.60;;;;;;;9.32;60.44;99717.12;2231232;88;25734;-73
2021/12/19 04:24:21;;;;;;;0.87;0.70;;;;;;;9.32;60.50;99727.09;2230660;88;29083;-72
2021/12/19 04:27:44;;;;;;;0.87;0.80;;;;;;;9.33;60.55;99724.06;2230589;88;34769;-75
2021/12/19 04:31:06;;;;;;;1.35;0.80;;;;;;;9.32;60.57;99707.59;2188713;88;25744;-75
2021/12/19 04:34:31;;;;;;;0.70;0.62;;;;;;;9.35;60.58;99701.14;2230628;88;25706;-73
2021/12/19 04:41:54;;;;;;;1.42;0.98;;;;;;;9.36;60.63;99678.17;2230438;88;25801;-73
2021/12/19 05:03:04;;;;;;;2.77;1.17;;;;;;;9.40;60.81;99664.36;2113188;90;25896;-74
2021/12/19 05:17:42;;;;;;;1.77;1.32;;;;;;;9.46;60.91;99662.30;2180233;88;25684;-79
2021/12/19 05:21:12;;;;;;;1.30;1.10;;;;;;;9.46;60.91;99671.41;2180960;89;25741;-74
2021/12/19 05:24:46;;;;;;;1.60;1.30;;;;;;;9.44;60.96;99670.48;2266375;85;25835;-72
2021/12/19 05:28:22;;;;;;;1.42;1.25;;;;;;;9.46;61.02;99672.27;2339261;84;26005;-73
2021/12/19 05:31:44;;;;;;;2.00;1.52;;;;;;;9.50;61.02;99672.33;2339592;84;25733;-72
2021/12/19 05:35:07;;;;;;;2.62;1.42;;;;;;;9.51;61.04;99672.34;2339157;84;25640;-78
2021/12/19 05:46:10;;;;;;;1.82;1.42;;;;;;;9.56;61.12;99660.72;2262301;87;25809;-73
2021/12/19 05:50:19;;;;;;;4.30;1.77;;;;;;;9.57;61.11;99651.63;2180444;89;25463;-73
2021/12/19 05:57:49;;;;;;;2.67;2.33;;;;;;;9.60;61.16;99643.87;2124363;91;25942;-73
2021/12/19 06:01:11;;;;;;;2.35;1.82;;;;;;;9.60;61.13;99633.46;2081481;93;25510;-75
2021/12/19 06:04:32;;;;;;;3.37;1.80;;;;;;;9.62;61.17;99629.59;2079273;94;29173;-74
2021/12/19 06:07:56;;;;;;;2.50;1.55;;;;;;;9.63;61.14;99629.61;2079466;92;25897;-74
2021/12/19 06:11:36;;;;;;;4.08;2.00;;;;;;;9.64;61.19;99627.44;2098395;94;25779;-74
2021/12/19 06:14:59;;;;;;;6.75;2.45;;;;;;;9.66;61.20;99616.64;2097733;92;26015;-75
2021/12/19 06:18:20;;;;;;;4.58;1.90;;;;;;;9.65;61.16;99621.41;2100644;92;25720;-74
2021/12/19 06:21:44;;;;;;;5.20;2.00;;;;;;;9.65;61.14;99600.59;2159715;90;30970;-73
2021/12/19 06:25:11;;;;;;;1.92;1.45;;;;;;;9.67;61.18;99597.56;2123905;91;25814;-76
2021/12/19 06:28:38;;;;;;;2.65;1.60;;;;;;;9.67;61.17;99600.16;2138760;92;25301;-75
2021/12/19 06:32:14;;;;;;;3.77;1.52;;;;;;;9.68;61.18;99599.30;2119018;92;25863;-77
2021/12/19 06:35:41;;;;;;;4.08;1.77;;;;;;;9.71;61.15;99599.78;2200570;88;25792;-77
2021/12/19 06:39:04;;;;;;;4.28;1.80;;;;;;;9.72;61.12;99601.55;2264568;86;25765;-74
2021/12/19 06:42:47;;;;;;;4.58;1.98;;;;;;;9.73;61.13;99600.69;2294659;85;25582;-74
2021/12/19 06:46:09;;;;;;;5.05;2.12;;;;;;;9.75;61.09;99591.16;2308093;85;25825;-73
2021/12/19 06:49:30;;;;;;;5.57;1.90;;;;;;;9.77;61.08;99585.56;2311960;85;30295;-78
2021/12/19 06:52:53;;;;;;;3.50;2.10;;;;;;;9.78;61.03;99593.81;2309824;85;25291;-74
2021/12/19 06:56:21;;;;;;;3.22;1.60;;;;;;;9.78;61.04;99579.92;2264328;87;25771;-76
2021/12/19 06:59:47;;;;;;;5.65;1.30;;;;;;;9.79;60.97;99579.09;2282934;85;25970;-76
2021/12/19 07:03:16;;;;;;;5.55;2.25;;;;;;;9.79;60.98;99581.27;2243077;87;25723;-76
2021/12/19 07:06:36;;;;;;;2.90;1.17;;;;;;;9.81;60.95;99573.03;2303626;85;25673;-74
2021/12/19 07:10:05;;;;;;;2.93;1.20;;;;;;;9.82;60.94;99573.89;2242881;87;31486;-75
2021/12/19 07:13:28;;;;;;;3.30;1.60;;;;;;;9.82;60.93;99586.91;2304286;85;25748;-74
2021/12/19 07:16:57;;;;;;;1.83;1.00;;;;;;;9.83;60.91;99581.75;2318335;84;30571;-75
2021/12/19 07:20:24;;;;;;;3.85;1.45;;;;;;;9.83;60.89;99586.08;2256860;86;25804;-74
2021/12/19 07:27:38;;;;;;;4.42;1.10;;;;;;;9.86;60.88;99577.02;2120337;92;25902;-76
2021/12/19 07:31:42;;;;;;;;;;;;;;;;;;;;;
2021/12/19 07:35:06;;;;;;;2.50;1.40;;;;;;;9.88;60.85;99563.57;2056348;95;25787;-73
2021/12/19 07:39:05;;;;;;;2.60;1.50;;;;;;;9.88;60.86;99554.46;2056729;94;44368;-72
2021/12/19 07:42:31;;;;;;;4.80;1.70;;;;;;;9.90;60.82;99561.45;1836275;104;25806;-75
2021/12/19 07:46:49;;;;;;;;;;;;;;;;;;;;;
2021/12/19 07:50:49;;;;;;;;;;;;;;;;;;;;;
2021/12/19 07:53:55;;;;;;;2.90;1.37;;;;;;;9.90;60.80;99569.69;1837497;106;25827;-79
2021/12/19 07:57:21;;;;;;;3.33;1.67;;;;;;;9.92;60.81;99562.36;1841468;104;30093;-80
2021/12/19 08:00:56;;;;;;;1.72;1.32;;;;;;;9.92;60.81;99553.23;1842485;106;25800;-74
2021/12/19 08:04:19;;;;;;;2.87;1.40;;;;;;;9.92;60.79;99555.84;1840818;106;25854;-73
2021/12/19 08:07:48;;;;;;;4.30;1.40;;;;;;;9.94;60.76;99542.83;1841971;107;25849;-75
2021/12/19 08:14:51;;;;;;;2.45;1.77;;;;;;;9.97;60.69;99562.40;1840862;105;25946;-74
2021/12/19 08:18:12;;;;;;;2.77;1.57;;;;;;;10.00;60.67;99552.46;1845181;105;29205;-76
2021/12/19 08:21:35;;;;;;;3.27;1.60;;;;;;;10.02;60.60;99545.52;1842507;104;35556;-78
2021/12/19 08:24:57;;;;;;;3.62;1.80;;;;;;;10.02;60.58;99553.33;1939610;95;25867;-74
2021/12/19 08:28:31;;;;;;;2.40;1.87;;;;;;;10.04;60.54;99551.20;2068244;95;25789;-74
2021/12/19 08:32:13;;;;;;;3.83;1.60;;;;;;;10.07;60.48;99544.73;2068115;95;25333;-76
2021/12/19 08:35:36;;;;;;;3.45;1.52;;;;;;;10.08;60.39;99547.77;2068300;94;26016;-74
2021/12/19 08:39:00;;;;;;;2.65;1.55;;;;;;;10.10;60.36;99541.30;2119806;90;25765;-75
2021/12/19 08:42:34;;;;;;;3.17;1.65;;;;;;;10.12;60.28;99536.97;2132976;91;25829;-76
2021/12/19 08:46:09;;;;;;;1.77;1.30;;;;;;;10.15;60.21;99546.13;2158742;90;25623;-72
2021/12/19 08:49:46;;;;;;;5.37;2.70;;;;;;;10.20;60.19;99542.28;2163155;87;25779;-74
2021/12/19 08:53:07;;;;;;;4.30;2.00;;;;;;;10.25;60.14;99557.09;2159866;87;25871;-79
2021/12/19 08:56:37;;;;;;;3.45;1.52;;;;;;;10.31;60.08;99555.03;2160444;91;25371;-74
2021/12/19 08:59:58;;;;;;;2.67;1.55;;;;;;;10.35;60.01;99564.19;2172251;90;35403;-75
2021/12/19 09:03:19;;;;;;;4.75;1.65;;;;;;;10.39;59.98;99563.79;2160174;91;29651;-73
2021/12/19 09:06:40;;;;;;;4.15;1.70;;;;;;;10.41;59.92;99571.20;2160582;91;29808;-74
2021/12/19 09:10:03;;;;;;;3.20;1.60;;;;;;;10.45;59.87;99557.78;2160119;91;25793;-73
2021/12/19 09:13:33;;;;;;;2.40;1.62;;;;;;;10.47;59.82;99559.99;2160405;91;25397;-75
2021/12/19 09:16:56;;;;;;;2.77;1.70;;;;;;;10.50;59.74;99569.15;2160463;91;25843;-81
2021/12/19 09:20:17;;;;;;;2.87;1.60;;;;;;;10.52;59.70;99568.72;2154276;91;25695;-79
2021/12/19 09:23:38;;;;;;;3.47;2.25;;;;;;;10.54;59.63;99568.31;2129391;91;25805;-74
2021/12/19 09:27:00;;;;;;;4.08;2.05;;;;;;;10.56;59.58;99555.75;2172543;90;29805;-73
2021/12/19 09:30:25;;;;;;;1.67;1.20;;;;;;;10.58;59.56;99557.06;2194085;90;25325;-79
2021/12/19 09:33:54;;;;;;;2.87;1.32;;;;;;;10.60;59.50;99560.13;2194622;90;25918;-76
2021/12/19 09:37:28;;;;;;;1.77;1.22;;;;;;;10.64;59.44;99551.91;2194739;88;25857;-73
2021/12/19 09:40:58;;;;;;;6.87;0.90;;;;;;;10.68;59.39;99543.69;2193454;90;25428;-79
2021/12/19 09:44:15;;;;;;;1.85;0.88;;;;;;;11.13;64.49;99540.59;2193812;90;26501;-70
2021/12/19 09:47:50;;;;;;;3.70;1.02;;;;;;;11.47;63.58;99538.23;2195752;84;25865;-80
2021/12/19 09:51:17;;;;;;;4.85;1.10;;;;;;;11.51;63.19;99516.53;2351270;84;26425;-71
2021/12/19 09:54:39;;;;;;;2.85;0.95;;;;;;;11.52;63.11;99510.00;2353558;84;26142;-75
2021/12/19 09:58:03;;;;;;;2.25;1.57;;;;;;;11.55;63.00;99499.58;2350073;84;25738;-70
2021/12/19 10:01:24;;;;;;;5.92;1.22;;;;;;;11.67;62.87;99488.31;2347391;84;25601;-76
2021/12/19 10:04:52;;;;;;;3.73;0.90;;;;;;;11.75;62.65;99488.37;2345845;84;25740;-71
2021/12/19 10:08:24;;;;;;;4.30;0.78;;;;;;;11.74;62.48;99500.52;2321768;82;25807;-82
2021/12/19 10:15:18;;;;;;;2.00;1.25;;;;;;;11.70;62.28;99489.63;2352977;82;25591;-79
2021/12/19 10:18:52;;;;;;;5.03;1.52;;;;;;;11.71;62.20;99480.05;2350965;84;25727;-80
2021/12/19 10:22:37;;;;;;;3.95;1.15;;;;;;;11.71;62.09;99468.31;2348099;83;25713;-72
2021/12/19 10:26:06;;;;;;;8.40;0.90;;;;;;;11.73;61.91;99450.92;2348698;84;25943;-74
2021/12/19 10:33:16;;;;;;;1.77;1.02;;;;;;;11.74;61.58;99454.83;2257217;85;26003;-73
2021/12/19 10:37:18;;;;;;;2.77;1.22;;;;;;;11.73;61.45;99449.62;2258908;87;25706;-78
2021/12/19 10:40:39;;;;;;;2.15;0.80;;;;;;;11.73;61.29;99446.56;2153601;91;26180;-71
2021/12/19 10:44:10;;;;;;;2.30;1.17;;;;;;;11.77;61.17;99444.84;2098191;94;25785;-79
2021/12/19 10:47:28;;;;;;;3.17;1.45;;;;;;;11.82;61.01;99440.52;2098247;94;26068;-78
2021/12/19 10:50:57;;;;;;;1.92;0.80;;;;;;;11.84;60.89;99441.41;2099176;93;25788;-78
2021/12/19 10:54:18;;;;;;;5.85;1.50;;;;;;;11.84;60.75;99444.02;2098084;92;25800;-71
2021/12/19 10:57:41;;;;;;;3.22;1.20;;;;;;;12.09;62.60;99428.45;2100810;94;31066;-74
2021/12/19 11:01:14;;;;;;;6.62;1.20;;;;;;;12.18;61.99;99441.50;2100838;94;25850;-69
2021/12/19 11:04:35;;;;;;;3.08;1.10;;;;;;;12.15;61.80;99437.17;2099141;92;25833;-70
2021/12/19 11:08:06;;;;;;;3.98;1.50;;;;;;;12.11;61.73;99422.33;2102233;94;25715;-81
2021/12/19 11:11:48;;;;;;;6.87;1.40;;;;;;;12.05;61.60;99421.91;2102062;94;25747;-70
2021/12/19 11:15:24;;;;;;;3.20;0.98;;;;;;;12.01;61.48;99417.95;2099842;92;25742;-70
2021/12/19 11:18:53;;;;;;;2.65;1.10;;;;;;;11.99;61.36;99412.74;2126291;91;25721;-70
2021/12/19 11:22:23;;;;;;;1.97;1.00;;;;;;;11.97;61.26;99412.29;2151151;91;26438;-74
2021/12/19 11:25:43;;;;;;;4.25;1.32;;;;;;;11.94;61.21;99411.84;2149671;92;25906;-70
2021/12/19 11:29:06;;;;;;;3.02;0.93;;;;;;;11.93;61.13;99398.36;2202068;87;25719;-73
2021/12/19 11:33:20;;;;;;;5.22;1.65;;;;;;;11.92;61.02;99397.06;2254757;87;25663;-82
2021/12/19 11:36:46;;;;;;;8.63;1.40;;;;;;;11.92;60.93;99397.06;2253286;87;25733;-72
2021/12/19 11:44:33;;;;;;;4.45;1.50;;;;;;;11.92;60.73;99402.28;2103209;93;25917;-70
2021/12/19 11:48:05;;;;;;;6.47;1.25;;;;;;;11.91;60.64;99398.77;2096845;93;26146;-77
2021/12/19 11:51:55;;;;;;;;;;;;;;;;;;;;;
2021/12/19 11:56:31;;;;;;;2.52;1.32;;;;;;;11.89;60.46;99393.13;2062540;95;26502;-72
2021/12/19 11:59:49;;;;;;;2.67;1.30;;;;;;;11.87;60.41;99380.05;2058532;95;25792;-82
2021/12/19 12:07:20;;;;;;;2.67;1.62;;;;;;;11.84;60.28;99381.34;2063074;95;25728;-75
2021/12/19 12:10:59;;;;;;;2.57;1.20;;;;;;;11.82;60.22;99372.62;2104121;93;25789;-73
2021/12/19 12:14:28;;;;;;;3.75;1.10;;;;;;;11.80;60.15;99367.38;2115616;92;25394;-78
2021/12/19 12:17:52;;;;;;;3.45;1.60;;;;;;;11.81;60.08;99355.19;2154048;85;26699;-79
2021/12/19 12:21:28;;;;;;;4.83;2.08;;;;;;;11.79;60.04;99358.26;2293018;84;25323;-77
2021/12/19 12:25:21;;;;;;;3.85;1.55;;;;;;;11.98;62.30;99361.38;2253191;87;25656;-69
2021/12/19 12:28:42;;;;;;;3.33;1.35;;;;;;;12.24;61.76;99367.92;2262823;85;25760;-72
2021/12/19 12:32:40;;;;;;;4.33;1.72;;;;;;;12.23;61.60;99363.57;2256858;85;31037;-73
2021/12/19 12:36:00;;;;;;;2.90;1.25;;;;;;;12.18;61.67;99347.03;2249628;87;25978;-84
2021/12/19 12:39:42;;;;;;;3.35;1.45;;;;;;;12.13;61.61;99351.38;2248136;86;30972;-70
2021/12/19 12:43:18;;;;;;;4.83;1.62;;;;;;;12.11;61.57;99350.48;2147715;88;25314;-79
2021/12/19 12:46:42;;;;;;;2.42;1.20;;;;;;;12.08;61.53;99347.87;2262204;87;25914;-81
2021/12/19 12:50:06;;;;;;;3.67;1.22;;;;;;;12.04;61.49;99346.13;2261453;87;25838;-75
2021/12/19 12:53:37;;;;;;;2.77;1.35;;;;;;;12.02;61.43;99343.97;2261950;87;25851;-73
2021/12/19 12:57:01;;;;;;;3.83;1.70;;;;;;;11.99;61.39;99342.22;2260805;87;25770;-78
2021/12/19 13:00:25;;;;;;;4.00;1.20;;;;;;;11.98;61.37;99339.59;2262891;87;25960;-69
2021/12/19 13:04:27;;;;;;;4.12;1.62;;;;;;;11.95;61.36;99331.34;2261716;86;25689;-79
2021/12/19 13:07:48;;;;;;;3.85;2.20;;;;;;;11.94;61.36;99326.09;2262916;87;26381;-80
2021/12/19 13:15:14;;;;;;;3.33;1.98;;;;;;;11.91;61.34;99315.64;2187936;89;26478;-69
2021/12/19 13:18:44;;;;;;;3.15;1.80;;;;;;;11.90;61.29;99297.80;2171779;89;26564;-77
2021/12/19 13:22:10;;;;;;;3.42;1.70;;;;;;;11.89;61.25;99297.38;2059555;95;25804;-75
2021/12/19 13:25:40;;;;;;;2.10;1.10;;;;;;;11.90;61.22;99283.87;2088271;92;25767;-71
2021/12/19 13:29:18;;;;;;;4.15;1.50;;;;;;;11.90;61.25;99259.06;2120933;92;25821;-70
2021/12/19 13:33:07;;;;;;;3.55;1.65;;;;;;;11.90;61.21;99255.15;2119587;91;25877;-77
2021/12/19 13:36:30;;;;;;;3.83;1.80;;;;;;;11.89;61.17;99256.03;2118473;93;25829;-71
2021/12/19 13:40:08;;;;;;;3.25;1.35;;;;;;;11.87;61.15;99248.62;2117084;91;30948;-76
2021/12/19 13:43:33;;;;;;;2.98;1.37;;;;;;;11.86;61.16;99252.97;2118115;91;25907;-69
2021/12/19 13:46:54;;;;;;;5.00;1.82;;;;;;;11.85;61.15;99251.68;2124274;91;25782;-75
2021/12/19 13:51:11;;;;;;;3.37;1.40;;;;;;;11.83;61.09;99260.33;2154463;88;26060;-76
2021/12/19 13:53:57;;;;;;;2.92;1.50;;;;;;;11.81;61.07;99254.66;2175767;90;26615;-82
2021/12/19 14:01:30;;;;;;;2.33;1.07;;;;;;;11.78;61.09;99261.22;2092522;93;25917;-77
2021/12/19 14:04:51;;;;;;;2.98;1.55;;;;;;;11.75;61.10;99266.00;2106540;93;25960;-79
2021/12/19 14:08:31;;;;;;;4.03;1.40;;;;;;;11.73;61.10;99244.66;2107117;93;25768;-72
2021/12/19 14:11:59;;;;;;;2.67;1.30;;;;;;;11.71;61.08;99251.61;2147362;91;26544;-71
2021/12/19 14:15:19;;;;;;;4.00;1.65;;;;;;;11.68;61.11;99252.50;2160743;91;25880;-70
2021/12/19 14:18:46;;;;;;;3.83;1.20;;;;;;;11.66;61.10;99257.28;2164222;89;31442;-73
2021/12/19 14:22:15;;;;;;;2.95;1.25;;;;;;;11.65;61.16;99255.55;2148621;90;25859;-72
2021/12/19 14:25:36;;;;;;;4.17;1.55;;;;;;;11.62;61.14;99262.06;2169888;90;25859;-70
2021/12/19 14:33:59;;;;;;;2.10;1.20;;;;;;;11.58;61.17;99250.75;2096359;93;25814;-81
2021/12/19 14:37:31;;;;;;;2.37;1.42;;;;;;;11.54;61.18;99256.81;2011419;97;25852;-70
2021/12/19 14:41:02;;;;;;;2.30;1.20;;;;;;;11.54;61.21;99258.11;2006818;97;26071;-69
2021/12/19 14:44:23;;;;;;;1.05;0.70;;;;;;;11.52;61.23;99261.17;2023119;96;26074;-72
2021/12/19 14:47:50;;;;;;;2.72;1.07;;;;;;;11.50;61.28;99252.02;2020541;97;25990;-72
2021/12/19 14:51:16;;;;;;;4.80;1.47;;;;;;;11.51;61.27;99259.45;2024736;97;26093;-74
2021/12/19 14:54:37;;;;;;;3.27;1.37;;;;;;;11.53;61.67;99252.03;2030155;97;26111;-69
2021/12/19 14:58:11;;;;;;;2.27;1.40;;;;;;;11.58;61.49;99253.36;2026484;96;25438;-73
2021/12/19 15:01:37;;;;;;;1.82;1.35;;;;;;;11.61;61.42;99250.76;1987653;98;26392;-73
2021/12/19 15:08:41;;;;;;;3.62;2.08;;;;;;;11.64;61.28;99238.98;2035495;95;25913;-81
2021/12/19 15:12:03;;;;;;;2.20;1.22;;;;;;;11.64;61.20;99224.63;2075566;94;25801;-83
2021/12/19 15:15:24;;;;;;;2.60;1.50;;;;;;;11.64;61.17;99233.77;2051912;93;25868;-70
2021/12/19 15:18:45;;;;;;;3.27;1.47;;;;;;;11.64;61.12;99225.06;2077985;95;31437;-72
2021/12/19 15:22:05;;;;;;;2.40;1.27;;;;;;;11.65;61.05;99216.39;2071648;94;25864;-84
2021/12/19 15:25:52;;;;;;;;;;;;;;;;;;;;;
2021/12/19 15:29:52;;;;;;;2.33;1.22;;;;;;;11.64;60.90;99245.95;2082745;93;25807;-85
2021/12/19 15:33:48;;;;;;;;;;;;;;;;;;;;;
2021/12/19 15:37:10;;;;;;;4.55;1.50;;;;;;;11.66;62.05;99242.92;1887794;104;26043;-80
2021/12/19 15:40:34;;;;;;;3.90;1.70;;;;;;;11.70;61.63;99256.41;1915357;102;26027;-73
2021/12/19 15:43:55;;;;;;;3.90;1.45;;;;;;;11.68;61.46;99245.11;1894833;102;25998;-71
2021/12/19 15:47:31;;;;;;;;;;;;;;;;;;;;;
2021/12/19 15:50:56;;;;;;;4.15;1.55;;;;;;;11.61;61.21;99248.15;1920795;101;25966;-85
2021/12/19 15:54:21;;;;;;;5.05;2.08;;;;;;;11.57;61.18;99265.95;1881749;103;25743;-81
2021/12/19 15:58:10;;;;;;;5.35;1.67;;;;;;;11.52;61.14;99266.39;1889629;102;25865;-79
2021/12/19 16:01:28;;;;;;;3.92;1.37;;;;;;;11.47;60.99;99249.84;1804174;106;25999;-70
2021/12/19 16:05:23;;;;;;;1.32;0.88;;;;;;;11.42;60.80;99265.50;1815090;106;30224;-87
2021/12/19 16:08:44;;;;;;;2.85;1.35;;;;;;;11.39;60.69;99274.63;1789015;109;26578;-70
2021/12/19 16:12:11;;;;;;;2.37;1.00;;;;;;;11.34;60.63;99272.45;1789807;110;26640;-77
2021/12/19 16:15:43;;;;;;;2.72;1.27;;;;;;;11.30;60.52;99275.89;1944605;100;26013;-73
2021/12/19 16:19:20;;;;;;;1.82;0.95;;;;;;;11.25;60.42;99269.37;1962260;99;26525;-79
2021/12/19 16:22:41;;;;;;;4.87;1.10;;;;;;;11.19;60.40;99274.56;1953385;101;30950;-71
2021/12/19 16:26:02;;;;;;;1.40;0.90;;;;;;;11.15;60.37;99279.34;1950919;101;31444;-78
2021/12/19 16:29:25;;;;;;;2.30;0.90;;;;;;;11.12;60.37;99293.67;1922145;102;26521;-87
2021/12/19 16:32:53;;;;;;;1.55;0.98;;;;;;;11.07;60.33;99301.48;1935164;101;25925;-72
2021/12/19 16:36:11;;;;;;;1.62;0.90;;;;;;;11.04;60.32;99303.22;1951997;101;25756;-70
2021/12/19 16:39:33;;;;;;;1.20;0.80;;;;;;;11.02;60.34;99299.72;1963328;99;25463;-81
2021/12/19 16:47:07;;;;;;;1.95;0.95;;;;;;;10.97;60.28;99342.73;1986904;98;25890;-89
2021/12/19 16:50:27;;;;;;;1.42;0.70;;;;;;;10.96;60.08;99344.01;1875394;104;25811;-71
2021/12/19 16:53:58;;;;;;;1.25;0.70;;;;;;;10.93;59.97;99336.17;1914289;102;31064;-76
2021/12/19 16:57:19;;;;;;;2.20;0.85;;;;;;;10.87;59.95;99343.11;2009902;96;25835;-82
2021/12/19 17:00:40;;;;;;;2.40;0.70;;;;;;;11.21;63.24;99350.23;2088053;93;25773;-76
2021/12/19 17:04:01;;;;;;;2.27;0.70;;;;;;;11.67;61.83;99347.77;2089180;94;29888;-80
2021/12/19 17:07:22;;;;;;;1.37;0.70;;;;;;;11.61;60.80;99340.81;2088761;94;31351;-79
2021/12/19 17:10:42;;;;;;;1.42;0.70;;;;;;;11.47;60.62;99334.22;2088934;94;25820;-71
2021/12/19 17:14:15;;;;;;;2.80;0.67;;;;;;;11.35;60.51;99345.94;2087938;94;26489;-77
2021/12/19 17:17:36;;;;;;;2.12;0.70;;;;;;;11.26;60.37;99349.38;2088361;92;25896;-75
2021/12/19 17:21:00;;;;;;;1.17;0.60;;;;;;;11.18;60.19;99346.31;2124247;91;30691;-82
2021/12/19 17:24:23;;;;;;;1.12;0.70;;;;;;;11.08;60.14;99348.00;2121485;91;25716;-76
2021/12/19 17:27:46;;;;;;;1.15;0.93;;;;;;;11.30;61.81;99355.03;2121197;93;25895;-70
2021/12/19 17:31:09;;;;;;;10.78;1.32;;;;;;;11.33;60.69;99365.48;2121921;93;25779;-79
2021/12/19 17:34:43;;;;;;;4.03;0.70;;;;;;;11.23;60.47;99364.14;2121894;92;26467;-70
2021/12/19 17:38:09;;;;;;;1.82;0.80;;;;;;;11.13;60.32;99350.62;2117779;86;26135;-75
2021/12/19 17:41:34;;;;;;;2.98;0.90;;;;;;;11.06;60.61;99361.45;2233184;86;26227;-77
2021/12/19 17:44:58;;;;;;;1.75;1.12;;;;;;;11.05;60.31;99351.89;2276819;85;26088;-71
2021/12/19 17:48:21;;;;;;;2.33;1.25;;;;;;;11.41;62.92;99358.16;2355460;84;25637;-73
2021/12/19 17:51:50;;;;;;;1.77;1.05;;;;;;;11.64;61.60;99363.42;2355573;84;25787;-79
2021/12/19 17:55:15;;;;;;;1.65;0.90;;;;;;;11.57;61.26;99353.39;2355857;84;25689;-77
2021/12/19 17:58:36;;;;;;;1.35;0.90;;;;;;;11.46;61.21;99359.02;2355747;84;25688;-81
2021/12/19 18:01:58;;;;;;;4.78;0.90;;;;;;;11.36;61.12;99360.72;2355652;84;25719;-70
2021/12/19 18:05:20;;;;;;;1.40;1.30;;;;;;;11.29;61.03;99368.95;2342924;82;25736;-73
2021/12/19 18:08:42;;;;;;;3.50;1.05;;;;;;;11.21;60.95;99373.72;2313905;85;25697;-74
2021/12/19 18:12:06;;;;;;;1.92;1.00;;;;;;;11.34;62.96;99374.22;2314240;85;25736;-75
2021/12/19 18:15:27;;;;;;;1.60;0.90;;;;;;;11.55;61.82;99388.64;2314367;85;25219;-72
2021/12/19 18:18:47;;;;;;;3.15;1.42;;;;;;;11.51;61.35;99383.42;2315516;84;25694;-72
2021/12/19 18:22:12;;;;;;;2.30;1.42;;;;;;;11.41;61.11;99386.86;2316462;85;30814;-73
2021/12/19 18:25:34;;;;;;;1.77;0.90;;;;;;;11.31;60.97;99389.41;2331145;83;25695;-72
2021/12/19 18:29:00;;;;;;;1.98;1.05;;;;;;;11.24;60.87;99384.17;2349033;84;25670;-72